AUA731 LOWW-LSGG
Flight info
| Callsign | AUA731 |
|---|---|
| Flight time | 1h 21m |
| Altitude | 34000 |
| Route | SOVIL DCT SITNI DCT BAGSI DCT MATIG DCT TRAUN/N0439F360 L856 AKABI/N0438F370 L856 TRA DCT LUTIX DCT BENOT |
| Aircraft | A320/M-SDE3FGHIRWY/LB1 |
Departure
| Time | 2026-04-25 20:25 |
|---|---|
| Airport | Vienna International Airport (LOWW) |
Arrival
| Time | 2026-04-25 21:46 |
|---|---|
| Airport | Geneva International Airport (LSGG) |
| Time | Latitude | Longitude | Altitude | Speed | Heading |
|---|---|---|---|---|---|
| 2026-04-25 19:48 | 48.11731 | 16.56739 | 602 ft | 0 kts | 26° |
| 2026-04-25 20:15 | 48.11716 | 16.56728 | 620 ft | 4 kts | 24° |
| 2026-04-25 20:15 | 48.11691 | 16.56712 | 626 ft | 4 kts | 25° |
| 2026-04-25 20:15 | 48.11668 | 16.56693 | 629 ft | 4 kts | 46° |
| 2026-04-25 20:16 | 48.11660 | 16.56671 | 627 ft | 1 kts | 116° |
| 2026-04-25 20:16 | 48.11660 | 16.56670 | 627 ft | 0 kts | 116° |
| 2026-04-25 20:19 | 48.11658 | 16.56677 | 628 ft | 1 kts | 115° |
| 2026-04-25 20:19 | 48.11652 | 16.56697 | 616 ft | 3 kts | 114° |
| 2026-04-25 20:20 | 48.11634 | 16.56754 | 618 ft | 11 kts | 114° |
| 2026-04-25 20:20 | 48.11583 | 16.56910 | 614 ft | 23 kts | 117° |
| 2026-04-25 20:20 | 48.11505 | 16.57141 | 616 ft | 26 kts | 118° |
| 2026-04-25 20:20 | 48.11447 | 16.57327 | 616 ft | 21 kts | 115° |
| 2026-04-25 20:21 | 48.11319 | 16.57333 | 605 ft | 25 kts | 206° |
| 2026-04-25 20:21 | 48.11161 | 16.57219 | 615 ft | 10 kts | 205° |
| 2026-04-25 20:21 | 48.11159 | 16.57217 | 615 ft | 0 kts | 205° |
| 2026-04-25 20:23 | 48.11155 | 16.57214 | 610 ft | 3 kts | 205° |
| 2026-04-25 20:23 | 48.11113 | 16.57184 | 611 ft | 12 kts | 206° |
| 2026-04-25 20:23 | 48.11064 | 16.57085 | 608 ft | 0 kts | 285° |
| 2026-04-25 20:24 | 48.11074 | 16.57041 | 616 ft | 20 kts | 290° |
| 2026-04-25 20:24 | 48.11250 | 16.56499 | 604 ft | 93 kts | 297° |
| 2026-04-25 20:24 | 48.11622 | 16.55362 | 596 ft | 148 kts | 296° |
| 2026-04-25 20:24 | 48.12132 | 16.53819 | 833 ft | 169 kts | 296° |
| 2026-04-25 20:25 | 48.12495 | 16.52187 | 1475 ft | 167 kts | 266° |
| 2026-04-25 20:25 | 48.12190 | 16.50492 | 2012 ft | 177 kts | 242° |
| 2026-04-25 20:25 | 48.11374 | 16.48969 | 2352 ft | 200 kts | 219° |
| 2026-04-25 20:25 | 48.10094 | 16.47993 | 2861 ft | 212 kts | 194° |
| 2026-04-25 20:26 | 48.08642 | 16.47511 | 3464 ft | 216 kts | 194° |
| 2026-04-25 20:26 | 48.07259 | 16.46630 | 4082 ft | 221 kts | 215° |
| 2026-04-25 20:26 | 48.06009 | 16.45084 | 4370 ft | 245 kts | 221° |
| 2026-04-25 20:26 | 48.04677 | 16.43327 | 4878 ft | 263 kts | 222° |
| 2026-04-25 20:27 | 48.03290 | 16.41493 | 5688 ft | 269 kts | 222° |
| 2026-04-25 20:27 | 48.01880 | 16.39635 | 6539 ft | 273 kts | 221° |
| 2026-04-25 20:27 | 48.00445 | 16.37751 | 7374 ft | 276 kts | 221° |
| 2026-04-25 20:27 | 47.98998 | 16.35856 | 8181 ft | 280 kts | 221° |
| 2026-04-25 20:28 | 47.97616 | 16.33787 | 8961 ft | 283 kts | 234° |
| 2026-04-25 20:28 | 47.96707 | 16.31183 | 9708 ft | 286 kts | 253° |
| 2026-04-25 20:28 | 47.96402 | 16.28247 | 10447 ft | 289 kts | 271° |
| 2026-04-25 20:28 | 47.96628 | 16.25198 | 10896 ft | 305 kts | 278° |
| 2026-04-25 20:29 | 47.96936 | 16.21946 | 11122 ft | 327 kts | 278° |
| 2026-04-25 20:29 | 47.97266 | 16.18527 | 11643 ft | 337 kts | 278° |
| 2026-04-25 20:29 | 47.97605 | 16.15037 | 12303 ft | 341 kts | 278° |
| 2026-04-25 20:29 | 47.97940 | 16.11559 | 12979 ft | 345 kts | 278° |
| 2026-04-25 20:30 | 47.98280 | 16.07975 | 13644 ft | 348 kts | 278° |
| 2026-04-25 20:30 | 47.98614 | 16.04380 | 14294 ft | 352 kts | 278° |
| 2026-04-25 20:30 | 47.98951 | 16.00736 | 14927 ft | 355 kts | 278° |
| 2026-04-25 20:30 | 47.99289 | 15.97067 | 15532 ft | 359 kts | 278° |
| 2026-04-25 20:31 | 47.99632 | 15.93347 | 16106 ft | 363 kts | 278° |
| 2026-04-25 20:31 | 47.99976 | 15.89596 | 16700 ft | 366 kts | 278° |
| 2026-04-25 20:31 | 48.00323 | 15.85808 | 17273 ft | 370 kts | 277° |
| 2026-04-25 20:31 | 48.00670 | 15.81990 | 17844 ft | 373 kts | 277° |
| 2026-04-25 20:32 | 48.01017 | 15.78141 | 18413 ft | 375 kts | 277° |
| 2026-04-25 20:32 | 48.01366 | 15.74264 | 18948 ft | 379 kts | 277° |
| 2026-04-25 20:32 | 48.01716 | 15.70347 | 19491 ft | 382 kts | 277° |
| 2026-04-25 20:32 | 48.02066 | 15.66408 | 20015 ft | 385 kts | 277° |
| 2026-04-25 20:33 | 48.02419 | 15.62433 | 20543 ft | 388 kts | 277° |
| 2026-04-25 20:33 | 48.02775 | 15.58420 | 21058 ft | 391 kts | 277° |
| 2026-04-25 20:33 | 48.03133 | 15.54380 | 21538 ft | 394 kts | 277° |
| 2026-04-25 20:33 | 48.03249 | 15.53061 | 21700 ft | 395 kts | 277° |
| 2026-04-25 20:34 | 48.03853 | 15.46208 | 22524 ft | 400 kts | 277° |
| 2026-04-25 20:34 | 48.04219 | 15.42132 | 22992 ft | 402 kts | 277° |
| 2026-04-25 20:34 | 48.04587 | 15.37959 | 23428 ft | 405 kts | 275° |
| 2026-04-25 20:34 | 48.04710 | 15.33726 | 23851 ft | 408 kts | 271° |
| 2026-04-25 20:35 | 48.04780 | 15.29476 | 24294 ft | 410 kts | 271° |
| 2026-04-25 20:35 | 48.04845 | 15.25205 | 24688 ft | 413 kts | 271° |
| 2026-04-25 20:35 | 48.04907 | 15.20900 | 25086 ft | 415 kts | 271° |
| 2026-04-25 20:35 | 48.04969 | 15.16578 | 25475 ft | 417 kts | 271° |
| 2026-04-25 20:36 | 48.05031 | 15.12226 | 25839 ft | 420 kts | 271° |
| 2026-04-25 20:36 | 48.05094 | 15.07881 | 26190 ft | 422 kts | 271° |
| 2026-04-25 20:36 | 48.05159 | 15.03496 | 26529 ft | 424 kts | 271° |
| 2026-04-25 20:36 | 48.05224 | 14.99059 | 26882 ft | 426 kts | 271° |
| 2026-04-25 20:37 | 48.05285 | 14.94587 | 27200 ft | 429 kts | 271° |
| 2026-04-25 20:37 | 48.05341 | 14.90180 | 27516 ft | 431 kts | 271° |
| 2026-04-25 20:37 | 48.05394 | 14.85692 | 27839 ft | 433 kts | 271° |
| 2026-04-25 20:37 | 48.05446 | 14.81180 | 28148 ft | 435 kts | 271° |
| 2026-04-25 20:38 | 48.05492 | 14.76598 | 28451 ft | 437 kts | 271° |
| 2026-04-25 20:38 | 48.05531 | 14.72098 | 28739 ft | 439 kts | 271° |
| 2026-04-25 20:38 | 48.05569 | 14.67421 | 29027 ft | 441 kts | 270° |
| 2026-04-25 20:38 | 48.05603 | 14.62936 | 29294 ft | 443 kts | 270° |
| 2026-04-25 20:39 | 48.05634 | 14.58325 | 29556 ft | 445 kts | 270° |
| 2026-04-25 20:39 | 48.05662 | 14.53635 | 29811 ft | 446 kts | 270° |
| 2026-04-25 20:39 | 48.05685 | 14.49044 | 30055 ft | 448 kts | 270° |
| 2026-04-25 20:39 | 48.05692 | 14.47470 | 30135 ft | 449 kts | 270° |
| 2026-04-25 20:40 | 48.05724 | 14.39655 | 30531 ft | 451 kts | 270° |
| 2026-04-25 20:40 | 48.05746 | 14.34976 | 30753 ft | 453 kts | 270° |
| 2026-04-25 20:40 | 48.05770 | 14.30257 | 30966 ft | 455 kts | 270° |
| 2026-04-25 20:40 | 48.05795 | 14.25516 | 31259 ft | 454 kts | 270° |
| 2026-04-25 20:41 | 48.05818 | 14.20789 | 31565 ft | 453 kts | 270° |
| 2026-04-25 20:41 | 48.05837 | 14.16082 | 31865 ft | 452 kts | 270° |
| 2026-04-25 20:41 | 48.05849 | 14.12972 | 32062 ft | 452 kts | 270° |
| 2026-04-25 20:41 | 48.05780 | 14.08287 | 32333 ft | 452 kts | 266° |
| 2026-04-25 20:42 | 48.05538 | 14.03644 | 32607 ft | 451 kts | 265° |
| 2026-04-25 20:42 | 48.05153 | 13.97396 | 32986 ft | 450 kts | 264° |
| 2026-04-25 20:42 | 48.04947 | 13.94306 | 33174 ft | 450 kts | 264° |
| 2026-04-25 20:42 | 48.04631 | 13.89659 | 33443 ft | 449 kts | 264° |
| 2026-04-25 20:43 | 48.04318 | 13.85013 | 33715 ft | 449 kts | 264° |
| 2026-04-25 20:43 | 48.04013 | 13.80405 | 33947 ft | 449 kts | 264° |
| 2026-04-25 20:43 | 48.03406 | 13.71188 | 34009 ft | 440 kts | 264° |
| 2026-04-25 20:44 | 48.02805 | 13.62114 | 34009 ft | 438 kts | 264° |
| 2026-04-25 20:44 | 48.02204 | 13.53050 | 34009 ft | 438 kts | 264° |
| 2026-04-25 20:45 | 48.01593 | 13.44022 | 34009 ft | 438 kts | 264° |
| 2026-04-25 20:45 | 48.00976 | 13.34988 | 34007 ft | 438 kts | 264° |
| 2026-04-25 20:46 | 48.00348 | 13.25913 | 34003 ft | 438 kts | 264° |
| 2026-04-25 20:46 | 47.99720 | 13.16860 | 34002 ft | 438 kts | 264° |
| 2026-04-25 20:47 | 47.99081 | 13.07812 | 34002 ft | 438 kts | 264° |
| 2026-04-25 20:47 | 47.98438 | 12.98832 | 34001 ft | 438 kts | 264° |
| 2026-04-25 20:48 | 47.97779 | 12.89812 | 34002 ft | 437 kts | 264° |
| 2026-04-25 20:48 | 47.97109 | 12.80799 | 34002 ft | 437 kts | 264° |
| 2026-04-25 20:49 | 47.96445 | 12.71800 | 34000 ft | 437 kts | 264° |
| 2026-04-25 20:49 | 47.95779 | 12.62752 | 33996 ft | 437 kts | 263° |
| 2026-04-25 20:50 | 47.95095 | 12.53730 | 33996 ft | 437 kts | 263° |
| 2026-04-25 20:50 | 47.94404 | 12.44750 | 33996 ft | 437 kts | 263° |
| 2026-04-25 20:51 | 47.93708 | 12.35748 | 33996 ft | 437 kts | 263° |
| 2026-04-25 20:51 | 47.93002 | 12.26755 | 33996 ft | 437 kts | 263° |
| 2026-04-25 20:52 | 47.92411 | 12.19249 | 33997 ft | 437 kts | 263° |
| 2026-04-25 20:52 | 47.91576 | 12.08709 | 33998 ft | 437 kts | 263° |
| 2026-04-25 20:53 | 47.90856 | 11.99753 | 33998 ft | 437 kts | 263° |
| 2026-04-25 20:53 | 47.90125 | 11.90768 | 33997 ft | 437 kts | 263° |
| 2026-04-25 20:54 | 47.89387 | 11.81768 | 33996 ft | 437 kts | 263° |
| 2026-04-25 20:54 | 47.88638 | 11.72775 | 33992 ft | 437 kts | 263° |
| 2026-04-25 20:55 | 47.87884 | 11.63769 | 33992 ft | 437 kts | 263° |
| 2026-04-25 20:55 | 47.87123 | 11.54773 | 33991 ft | 438 kts | 263° |
| 2026-04-25 20:56 | 47.86357 | 11.45778 | 33994 ft | 438 kts | 263° |
| 2026-04-25 20:56 | 47.85586 | 11.36837 | 33995 ft | 438 kts | 263° |
| 2026-04-25 20:57 | 47.84727 | 11.27872 | 33996 ft | 438 kts | 261° |
| 2026-04-25 20:57 | 47.83761 | 11.18913 | 33996 ft | 438 kts | 261° |
| 2026-04-25 20:58 | 47.82790 | 11.10005 | 33997 ft | 437 kts | 261° |
| 2026-04-25 20:58 | 47.81904 | 11.01683 | 33996 ft | 437 kts | 261° |
| 2026-04-25 20:59 | 47.80951 | 10.92724 | 33994 ft | 438 kts | 261° |
| 2026-04-25 20:59 | 47.79987 | 10.83780 | 33992 ft | 438 kts | 261° |
| 2026-04-25 21:00 | 47.79343 | 10.77863 | 33993 ft | 438 kts | 261° |
| 2026-04-25 21:01 | 47.77537 | 10.61476 | 33992 ft | 438 kts | 261° |
| 2026-04-25 21:01 | 47.76568 | 10.52715 | 33994 ft | 438 kts | 261° |
| 2026-04-25 21:02 | 47.75567 | 10.43739 | 33993 ft | 438 kts | 261° |
| 2026-04-25 21:02 | 47.74612 | 10.34832 | 33993 ft | 438 kts | 265° |
| 2026-04-25 21:03 | 47.74373 | 10.25794 | 33995 ft | 438 kts | 268° |
| 2026-04-25 21:03 | 47.74172 | 10.16722 | 33992 ft | 438 kts | 268° |
| 2026-04-25 21:04 | 47.73967 | 10.07662 | 33991 ft | 438 kts | 268° |
| 2026-04-25 21:04 | 47.73743 | 9.98613 | 33995 ft | 438 kts | 268° |
| 2026-04-25 21:05 | 47.73515 | 9.89570 | 33997 ft | 438 kts | 268° |
| 2026-04-25 21:05 | 47.73273 | 9.80536 | 33998 ft | 438 kts | 265° |
| 2026-04-25 21:05 | 47.72673 | 9.76131 | 34000 ft | 437 kts | 251° |
| 2026-04-25 21:06 | 47.71665 | 9.71900 | 33997 ft | 437 kts | 250° |
| 2026-04-25 21:06 | 47.69591 | 9.63425 | 33996 ft | 437 kts | 250° |
| 2026-04-25 21:07 | 47.67498 | 9.54975 | 33900 ft | 434 kts | 250° |
| 2026-04-25 21:07 | 47.66456 | 9.50777 | 33769 ft | 433 kts | 250° |
| 2026-04-25 21:07 | 47.65416 | 9.46586 | 33647 ft | 433 kts | 250° |
| 2026-04-25 21:07 | 47.64379 | 9.42401 | 33501 ft | 433 kts | 250° |
| 2026-04-25 21:08 | 47.63339 | 9.38199 | 33348 ft | 433 kts | 250° |
| 2026-04-25 21:08 | 47.62313 | 9.34060 | 33203 ft | 433 kts | 250° |
| 2026-04-25 21:08 | 47.61270 | 9.29873 | 33014 ft | 433 kts | 250° |
| 2026-04-25 21:09 | 47.58132 | 9.17299 | 32990 ft | 431 kts | 250° |
| 2026-04-25 21:09 | 47.56066 | 9.09057 | 32985 ft | 425 kts | 250° |
| 2026-04-25 21:10 | 47.53999 | 9.00868 | 32986 ft | 425 kts | 250° |
| 2026-04-25 21:10 | 47.51917 | 8.92621 | 32989 ft | 425 kts | 249° |
| 2026-04-25 21:11 | 47.49852 | 8.84482 | 32990 ft | 425 kts | 249° |
| 2026-04-25 21:11 | 47.47759 | 8.76275 | 32986 ft | 425 kts | 249° |
| 2026-04-25 21:12 | 47.45677 | 8.68132 | 32986 ft | 425 kts | 249° |
| 2026-04-25 21:12 | 47.43937 | 8.61341 | 32990 ft | 425 kts | 249° |
| 2026-04-25 21:13 | 47.41486 | 8.51807 | 32982 ft | 424 kts | 249° |
| 2026-04-25 21:13 | 47.39377 | 8.43670 | 32983 ft | 424 kts | 249° |
| 2026-04-25 21:14 | 47.37267 | 8.35538 | 32979 ft | 425 kts | 249° |
| 2026-04-25 21:14 | 47.35154 | 8.27398 | 32988 ft | 424 kts | 249° |
| 2026-04-25 21:15 | 47.33057 | 8.19318 | 32981 ft | 425 kts | 249° |
| 2026-04-25 21:15 | 47.30928 | 8.11198 | 32984 ft | 425 kts | 249° |
| 2026-04-25 21:16 | 47.28110 | 8.03591 | 32647 ft | 423 kts | 235° |
| 2026-04-25 21:16 | 47.26434 | 8.00043 | 32397 ft | 422 kts | 235° |
| 2026-04-25 21:16 | 47.24752 | 7.96510 | 32146 ft | 420 kts | 235° |
| 2026-04-25 21:17 | 47.23073 | 7.92999 | 31893 ft | 418 kts | 235° |
| 2026-04-25 21:17 | 47.21411 | 7.89534 | 31647 ft | 417 kts | 235° |
| 2026-04-25 21:17 | 47.19895 | 7.86375 | 31423 ft | 415 kts | 235° |
| 2026-04-25 21:17 | 47.18231 | 7.82911 | 31169 ft | 413 kts | 235° |
| 2026-04-25 21:18 | 47.16579 | 7.79469 | 30919 ft | 412 kts | 235° |
| 2026-04-25 21:18 | 47.14931 | 7.76031 | 30668 ft | 410 kts | 235° |
| 2026-04-25 21:18 | 47.13292 | 7.72616 | 30419 ft | 409 kts | 235° |
| 2026-04-25 21:18 | 47.11658 | 7.69217 | 30168 ft | 407 kts | 235° |
| 2026-04-25 21:19 | 47.10024 | 7.65828 | 29918 ft | 405 kts | 235° |
| 2026-04-25 21:19 | 47.08396 | 7.62456 | 29667 ft | 403 kts | 235° |
| 2026-04-25 21:19 | 47.06780 | 7.59105 | 29417 ft | 402 kts | 235° |
| 2026-04-25 21:19 | 47.05171 | 7.55773 | 29165 ft | 400 kts | 234° |
| 2026-04-25 21:20 | 47.03563 | 7.52453 | 28916 ft | 398 kts | 234° |
| 2026-04-25 21:20 | 47.03022 | 7.51338 | 28832 ft | 398 kts | 234° |
| 2026-04-25 21:20 | 47.00366 | 7.45870 | 28413 ft | 395 kts | 234° |
| 2026-04-25 21:20 | 46.98776 | 7.42595 | 28165 ft | 394 kts | 234° |
| 2026-04-25 21:21 | 46.97193 | 7.39333 | 27915 ft | 392 kts | 234° |
| 2026-04-25 21:21 | 46.95616 | 7.36083 | 27665 ft | 390 kts | 234° |
| 2026-04-25 21:21 | 46.94040 | 7.32840 | 27414 ft | 389 kts | 234° |
| 2026-04-25 21:21 | 46.92487 | 7.29651 | 27171 ft | 387 kts | 234° |
| 2026-04-25 21:22 | 46.90912 | 7.26431 | 26913 ft | 386 kts | 234° |
| 2026-04-25 21:22 | 46.89350 | 7.23246 | 26660 ft | 384 kts | 234° |
| 2026-04-25 21:22 | 46.87795 | 7.20078 | 26406 ft | 383 kts | 234° |
| 2026-04-25 21:22 | 46.86246 | 7.16922 | 26160 ft | 381 kts | 234° |
| 2026-04-25 21:23 | 46.84706 | 7.13783 | 25918 ft | 378 kts | 234° |
| 2026-04-25 21:23 | 46.83183 | 7.10684 | 25534 ft | 374 kts | 234° |
| 2026-04-25 21:23 | 46.81693 | 7.07651 | 25104 ft | 371 kts | 234° |
| 2026-04-25 21:23 | 46.80194 | 7.04600 | 24652 ft | 369 kts | 234° |
| 2026-04-25 21:24 | 46.78683 | 7.01531 | 24189 ft | 366 kts | 234° |
| 2026-04-25 21:24 | 46.77700 | 6.99539 | 23889 ft | 365 kts | 234° |
| 2026-04-25 21:24 | 46.76224 | 6.96545 | 23424 ft | 363 kts | 234° |
| 2026-04-25 21:24 | 46.74749 | 6.93559 | 22969 ft | 361 kts | 234° |
| 2026-04-25 21:25 | 46.73286 | 6.90600 | 22505 ft | 360 kts | 234° |
| 2026-04-25 21:25 | 46.71349 | 6.86689 | 21903 ft | 358 kts | 234° |
| 2026-04-25 21:25 | 46.69898 | 6.83759 | 21458 ft | 356 kts | 234° |
| 2026-04-25 21:25 | 46.68447 | 6.80836 | 21012 ft | 355 kts | 234° |
| 2026-04-25 21:26 | 46.67470 | 6.78874 | 20714 ft | 354 kts | 234° |
| 2026-04-25 21:26 | 46.65877 | 6.76152 | 20272 ft | 352 kts | 223° |
| 2026-04-25 21:26 | 46.63967 | 6.74014 | 19839 ft | 351 kts | 211° |
| 2026-04-25 21:26 | 46.61824 | 6.72306 | 19403 ft | 349 kts | 208° |
| 2026-04-25 21:27 | 46.59690 | 6.70628 | 18964 ft | 348 kts | 208° |
| 2026-04-25 21:27 | 46.57569 | 6.68949 | 18538 ft | 347 kts | 209° |
| 2026-04-25 21:27 | 46.55454 | 6.67272 | 18112 ft | 345 kts | 209° |
| 2026-04-25 21:27 | 46.53348 | 6.65606 | 17689 ft | 344 kts | 209° |
| 2026-04-25 21:28 | 46.51249 | 6.63952 | 17266 ft | 343 kts | 208° |
| 2026-04-25 21:28 | 46.49155 | 6.62304 | 16847 ft | 341 kts | 208° |
| 2026-04-25 21:28 | 46.47073 | 6.60666 | 16440 ft | 340 kts | 208° |
| 2026-04-25 21:28 | 46.44997 | 6.59036 | 16033 ft | 338 kts | 208° |
| 2026-04-25 21:29 | 46.42937 | 6.57423 | 15775 ft | 332 kts | 208° |
| 2026-04-25 21:29 | 46.40935 | 6.55855 | 15613 ft | 323 kts | 210° |
| 2026-04-25 21:29 | 46.39115 | 6.53993 | 15324 ft | 319 kts | 223° |
| 2026-04-25 21:29 | 46.37562 | 6.51716 | 14961 ft | 317 kts | 226° |
| 2026-04-25 21:30 | 46.36034 | 6.49434 | 14610 ft | 315 kts | 226° |
| 2026-04-25 21:30 | 46.34505 | 6.47165 | 14283 ft | 313 kts | 226° |
| 2026-04-25 21:30 | 46.32986 | 6.44917 | 13916 ft | 312 kts | 226° |
| 2026-04-25 21:30 | 46.31977 | 6.43426 | 13691 ft | 311 kts | 226° |
| 2026-04-25 21:31 | 46.29963 | 6.40454 | 13293 ft | 307 kts | 226° |
| 2026-04-25 21:31 | 46.28477 | 6.38263 | 13037 ft | 304 kts | 226° |
| 2026-04-25 21:31 | 46.26998 | 6.36086 | 12803 ft | 302 kts | 226° |
| 2026-04-25 21:31 | 46.25528 | 6.33926 | 12564 ft | 301 kts | 226° |
| 2026-04-25 21:32 | 46.24059 | 6.31769 | 12325 ft | 300 kts | 226° |
| 2026-04-25 21:32 | 46.22599 | 6.29625 | 12087 ft | 299 kts | 226° |
| 2026-04-25 21:32 | 46.21143 | 6.27490 | 11851 ft | 298 kts | 225° |
| 2026-04-25 21:32 | 46.19692 | 6.25365 | 11612 ft | 297 kts | 226° |
| 2026-04-25 21:33 | 46.18253 | 6.23241 | 11380 ft | 295 kts | 226° |
| 2026-04-25 21:33 | 46.16825 | 6.21116 | 11146 ft | 294 kts | 226° |
| 2026-04-25 21:33 | 46.15402 | 6.18991 | 10914 ft | 295 kts | 226° |
| 2026-04-25 21:33 | 46.13979 | 6.16870 | 10671 ft | 294 kts | 226° |
| 2026-04-25 21:34 | 46.12576 | 6.14785 | 10451 ft | 292 kts | 226° |
| 2026-04-25 21:34 | 46.11160 | 6.12685 | 10219 ft | 291 kts | 226° |
| 2026-04-25 21:34 | 46.09740 | 6.10584 | 9985 ft | 290 kts | 226° |
| 2026-04-25 21:34 | 46.08338 | 6.08525 | 9758 ft | 289 kts | 225° |
| 2026-04-25 21:35 | 46.06927 | 6.06487 | 9532 ft | 289 kts | 225° |
| 2026-04-25 21:35 | 46.05502 | 6.04441 | 9301 ft | 287 kts | 225° |
| 2026-04-25 21:35 | 46.04091 | 6.02419 | 9074 ft | 286 kts | 225° |
| 2026-04-25 21:35 | 46.02686 | 6.00401 | 8848 ft | 283 kts | 225° |
| 2026-04-25 21:36 | 46.01329 | 5.98451 | 8707 ft | 267 kts | 225° |
| 2026-04-25 21:36 | 46.00060 | 5.96630 | 8463 ft | 253 kts | 225° |
| 2026-04-25 21:36 | 45.98826 | 5.94859 | 8273 ft | 248 kts | 225° |
| 2026-04-25 21:36 | 45.97602 | 5.93103 | 8172 ft | 248 kts | 225° |
| 2026-04-25 21:37 | 45.96382 | 5.91350 | 8063 ft | 248 kts | 225° |
| 2026-04-25 21:37 | 45.95573 | 5.90188 | 7991 ft | 248 kts | 226° |
| 2026-04-25 21:37 | 45.94428 | 5.87236 | 7844 ft | 259 kts | 262° |
| 2026-04-25 21:37 | 45.94557 | 5.84779 | 7720 ft | 249 kts | 290° |
| 2026-04-25 21:38 | 45.95504 | 5.82757 | 7467 ft | 244 kts | 319° |
| 2026-04-25 21:38 | 45.96997 | 5.81684 | 7220 ft | 243 kts | 351° |
| 2026-04-25 21:38 | 45.98682 | 5.81776 | 6969 ft | 244 kts | 10° |
| 2026-04-25 21:38 | 46.00344 | 5.82274 | 6718 ft | 244 kts | 10° |
| 2026-04-25 21:39 | 46.02006 | 5.82182 | 6457 ft | 239 kts | 342° |
| 2026-04-25 21:39 | 46.03585 | 5.81621 | 6224 ft | 227 kts | 0° |
| 2026-04-25 21:39 | 46.04954 | 5.82327 | 6203 ft | 199 kts | 38° |
| 2026-04-25 21:39 | 46.05839 | 5.83682 | 6119 ft | 176 kts | 61° |
| 2026-04-25 21:40 | 46.06348 | 5.85177 | 5931 ft | 160 kts | 53° |
| 2026-04-25 21:40 | 46.07067 | 5.86365 | 5740 ft | 156 kts | 47° |
| 2026-04-25 21:40 | 46.07807 | 5.87497 | 5543 ft | 155 kts | 46° |
| 2026-04-25 21:40 | 46.08554 | 5.88606 | 5341 ft | 154 kts | 45° |
| 2026-04-25 21:41 | 46.09303 | 5.89706 | 5137 ft | 153 kts | 45° |
| 2026-04-25 21:41 | 46.10051 | 5.90798 | 4929 ft | 153 kts | 45° |
| 2026-04-25 21:41 | 46.10799 | 5.91888 | 4730 ft | 153 kts | 45° |
| 2026-04-25 21:41 | 46.11544 | 5.92975 | 4527 ft | 152 kts | 45° |
| 2026-04-25 21:42 | 46.12287 | 5.94057 | 4321 ft | 152 kts | 45° |
| 2026-04-25 21:42 | 46.13029 | 5.95138 | 4132 ft | 151 kts | 45° |
| 2026-04-25 21:42 | 46.13765 | 5.96212 | 3923 ft | 150 kts | 45° |
| 2026-04-25 21:42 | 46.14499 | 5.97283 | 3723 ft | 150 kts | 45° |
| 2026-04-25 21:43 | 46.15232 | 5.98352 | 3524 ft | 149 kts | 45° |
| 2026-04-25 21:43 | 46.15963 | 5.99418 | 3326 ft | 149 kts | 45° |
| 2026-04-25 21:43 | 46.16692 | 6.00482 | 3128 ft | 149 kts | 45° |
| 2026-04-25 21:43 | 46.17418 | 6.01543 | 2927 ft | 148 kts | 45° |
| 2026-04-25 21:44 | 46.18141 | 6.02600 | 2735 ft | 148 kts | 45° |
| 2026-04-25 21:44 | 46.18864 | 6.03656 | 2526 ft | 147 kts | 45° |
| 2026-04-25 21:44 | 46.20298 | 6.05755 | 2147 ft | 146 kts | 45° |
| 2026-04-25 21:45 | 46.21012 | 6.06799 | 1953 ft | 146 kts | 45° |
| 2026-04-25 21:45 | 46.21483 | 6.07489 | 1825 ft | 146 kts | 45° |
| 2026-04-25 21:45 | 46.22435 | 6.08878 | 1569 ft | 145 kts | 45° |
| 2026-04-25 21:45 | 46.23136 | 6.09898 | 1413 ft | 130 kts | 45° |
| 2026-04-25 21:46 | 46.23472 | 6.10404 | 1412 ft | 41 kts | 44° |
| 2026-04-25 21:46 | 46.23625 | 6.10628 | 1405 ft | 26 kts | 52° |
| 2026-04-25 21:46 | 46.23626 | 6.10736 | 1403 ft | 3 kts | 168° |
| 2026-04-25 21:46 | 46.23625 | 6.10735 | 1403 ft | 0 kts | 179° |
| 2026-04-25 21:47 | 46.23619 | 6.10735 | 1402 ft | 5 kts | 181° |
| 2026-04-25 21:47 | 46.23544 | 6.10709 | 1401 ft | 17 kts | 199° |
| 2026-04-25 21:48 | 46.23518 | 6.10696 | 1400 ft | 2 kts | 197° |
| 2026-04-25 21:48 | 46.23498 | 6.10688 | 1408 ft | 6 kts | 197° |
| 2026-04-25 21:48 | 46.23456 | 6.10670 | 1402 ft | 1 kts | 187° |
| 2026-04-25 21:49 | 46.23434 | 6.10683 | 1402 ft | 8 kts | 150° |
| 2026-04-25 21:49 | 46.23362 | 6.10776 | 1400 ft | 14 kts | 131° |
| 2026-04-25 21:49 | 46.23264 | 6.10775 | 1404 ft | 12 kts | 196° |
| 2026-04-25 21:49 | 46.23216 | 6.10731 | 1409 ft | 5 kts | 221° |
| 2026-04-25 21:50 | 46.23202 | 6.10711 | 1412 ft | 1 kts | 223° |
| 2026-04-25 21:50 | 46.23186 | 6.10690 | 1410 ft | 7 kts | 225° |
| 2026-04-25 21:50 | 46.23126 | 6.10603 | 1417 ft | 18 kts | 226° |
| 2026-04-25 21:50 | 46.23067 | 6.10518 | 1414 ft | 0 kts | 207° |
| 2026-04-25 21:51 | 46.23059 | 6.10523 | 1414 ft | 5 kts | 157° |
| 2026-04-25 21:51 | 46.23055 | 6.10531 | 1414 ft | 0 kts | 127° |
| 2026-04-25 21:51 | 46.23050 | 6.10540 | 1414 ft | 2 kts | 126° |
| 2026-04-25 21:51 | 46.23047 | 6.10548 | 1412 ft | 0 kts | 122° |
| 2026-04-25 21:52 | 46.23037 | 6.10565 | 1410 ft | 5 kts | 135° |
| 2026-04-25 21:52 | 46.23033 | 6.10571 | 1410 ft | 0 kts | 137° |